Time;durP1;ratioP1;P1;durP2;ratioP2;P2;SDS_P1;SDS_P2;PMS_P1;PMS_P2;Temp;Humidity;BMP_temperature;BMP_pressure;BME280_temperature;BME280_humidity;BME280_pressure;Samples;Min_cycle;Max_cycle;Signal;HPM_P1;HPM_P2
2021/10/08 00:00:36;;;;;;;;;;;;;;;;;;2114911;28;19931;-45
2021/10/08 00:01:37;;;;;;;;;;;;;;;;;;2115259;28;19932;-45
2021/10/08 00:02:38;;;;;;;;;;;;;;;;;;2115064;28;19924;-45
2021/10/08 00:03:39;;;;;;;;;;;;;;;;;;2115042;28;20285;-45
2021/10/08 00:04:40;;;;;;;;;;;;;;;;;;2115018;28;19924;-45
2021/10/08 00:05:40;;;;;;;;;;;;;;;;;;2115126;28;20397;-45
2021/10/08 00:06:41;;;;;;;;;;;;;;;;;;2114794;28;20327;-45
2021/10/08 00:07:42;;;;;;;;;;;;;;;;;;2115037;28;19924;-45
2021/10/08 00:08:43;;;;;;;;;;;;;;;;;;2114751;28;19924;-45
2021/10/08 00:09:44;;;;;;;;;;;;;;;;;;2115149;28;20215;-45
2021/10/08 00:10:45;;;;;;;;;;;;;;;;;;2114855;28;19924;-45
2021/10/08 00:11:45;;;;;;;;;;;;;;;;;;2115156;28;20338;-45
2021/10/08 00:12:46;;;;;;;;;;;;;;;;;;2114872;28;20335;-45
2021/10/08 00:13:47;;;;;;;;;;;;;;;;;;2115091;28;19924;-45
2021/10/08 00:14:48;;;;;;;;;;;;;;;;;;2115058;28;19950;-45
2021/10/08 00:15:49;;;;;;;;;;;;;;;;;;2114988;28;20301;-45
2021/10/08 00:16:49;;;;;;;;;;;;;;;;;;2115157;28;20429;-45
2021/10/08 00:17:50;;;;;;;;;;;;;;;;;;2115034;28;19931;-45
2021/10/08 00:18:51;;;;;;;;;;;;;;;;;;2114998;28;19924;-45
2021/10/08 00:19:52;;;;;;;;;;;;;;;;;;2114747;28;19924;-45
2021/10/08 00:20:53;;;;;;;;;;;;;;;;;;2115131;28;19923;-45
2021/10/08 00:21:53;;;;;;;;;;;;;;;;;;2114680;28;19947;-45
2021/10/08 00:22:54;;;;;;;;;;;;;;;;;;2115033;28;19931;-45
2021/10/08 00:23:55;;;;;;;;;;;;;;;;;;2114190;28;19930;-45
2021/10/08 00:24:56;;;;;;;;;;;;;;;;;;2115317;28;19938;-45
2021/10/08 00:25:57;;;;;;;;;;;;;;;;;;2114647;28;20331;-45
2021/10/08 00:26:57;;;;;;;;;;;;;;;;;;2115019;28;20413;-45
2021/10/08 00:27:58;;;;;;;;;;;;;;;;;;2114715;28;19924;-45
2021/10/08 00:29:00;;;;;;;;;;;;;;;;;;2114980;28;20422;-45
2021/10/08 00:30:00;;;;;;;;;;;;;;;;;;2114710;28;19980;-45
2021/10/08 00:31:01;;;;;;;;;;;;;;;;;;2114892;28;19980;-46
2021/10/08 00:32:02;;;;;;;;;;;;;;;;;;2114781;28;20423;-45
2021/10/08 00:33:03;;;;;;;;;;;;;;;;;;2115135;28;20273;-45
2021/10/08 00:34:03;;;;;;;;;;;;;;;;;;2114592;28;19928;-45
2021/10/08 00:35:04;;;;;;;;;;;;;;;;;;2114844;28;19977;-45
2021/10/08 00:36:05;;;;;;;;;;;;;;;;;;2114617;28;19930;-45
2021/10/08 00:37:06;;;;;;;;;;;;;;;;;;2115104;28;19935;-45
2021/10/08 00:38:08;;;;;;;;;;;;;;;;;;2114686;28;20026;-45
2021/10/08 00:39:09;;;;;;;;;;;;;;;;;;2115064;28;19931;-45
2021/10/08 00:40:09;;;;;;;;;;;;;;;;;;2114553;28;20299;-45
2021/10/08 00:41:11;;;;;;;;;;;;;;;;;;2114972;28;20429;-45
2021/10/08 00:42:12;;;;;;;;;;;;;;;;;;2114635;28;20488;-45
2021/10/08 00:43:13;;;;;;;;;;;;;;;;;;2115061;28;19931;-45
2021/10/08 00:44:14;;;;;;;;;;;;;;;;;;2114786;28;19984;-45
2021/10/08 00:45:14;;;;;;;;;;;;;;;;;;2114776;28;19938;-45
2021/10/08 00:46:15;;;;;;;;;;;;;;;;;;2114758;28;19924;-45
2021/10/08 00:47:16;;;;;;;;;;;;;;;;;;2114681;28;19923;-45
2021/10/08 00:48:17;;;;;;;;;;;;;;;;;;2114646;28;19928;-45
2021/10/08 00:49:18;;;;;;;;;;;;;;;;;;2114598;28;19924;-45
2021/10/08 00:50:18;;;;;;;;;;;;;;;;;;2114885;28;20046;-45
2021/10/08 00:51:19;;;;;;;;;;;;;;;;;;2114732;28;19950;-45
2021/10/08 00:52:20;;;;;;;;;;;;;;;;;;2114810;28;19923;-45
2021/10/08 00:53:21;;;;;;;;;;;;;;;;;;2114645;28;20011;-45
2021/10/08 00:54:22;;;;;;;;;;;;;;;;;;2114773;28;19984;-46
2021/10/08 00:55:22;;;;;;;;;;;;;;;;;;2114547;28;19923;-45
2021/10/08 00:56:23;;;;;;;;;;;;;;;;;;2114857;28;19923;-45
2021/10/08 00:57:24;;;;;;;;;;;;;;;;;;2114766;28;19923;-45
2021/10/08 00:58:25;;;;;;;;;;;;;;;;;;2114654;28;19924;-45
2021/10/08 00:59:26;;;;;;;;;;;;;;;;;;2114639;28;20417;-45
2021/10/08 01:00:27;;;;;;;;;;;;;;;;;;2114644;28;19931;-45
2021/10/08 01:01:27;;;;;;;;;;;;;;;;;;2114643;28;19946;-45
2021/10/08 01:02:28;;;;;;;;;;;;;;;;;;2114715;28;19924;-45
2021/10/08 01:03:29;;;;;;;;;;;;;;;;;;2114592;28;19927;-45
2021/10/08 01:04:30;;;;;;;;;;;;;;;;;;2114722;28;20199;-45
2021/10/08 01:05:31;;;;;;;;;;;;;;;;;;2114671;28;20286;-45
2021/10/08 01:06:32;;;;;;;;;;;;;;;;;;2114731;28;19928;-45
2021/10/08 01:07:32;;;;;;;;;;;;;;;;;;2114477;28;20436;-45
2021/10/08 01:08:33;;;;;;;;;;;;;;;;;;2114674;28;19930;-45
2021/10/08 01:09:34;;;;;;;;;;;;;;;;;;2114568;28;19976;-45
2021/10/08 01:10:35;;;;;;;;;;;;;;;;;;2114576;28;20059;-45
2021/10/08 01:11:36;;;;;;;;;;;;;;;;;;2114646;28;19924;-45
2021/10/08 01:12:36;;;;;;;;;;;;;;;;;;2114424;28;19923;-45
2021/10/08 01:13:38;;;;;;;;;;;;;;;;;;2114762;28;20014;-45
2021/10/08 01:14:38;;;;;;;;;;;;;;;;;;2114377;28;19928;-45
2021/10/08 01:15:39;;;;;;;;;;;;;;;;;;2114712;28;19934;-46
2021/10/08 01:16:40;;;;;;;;;;;;;;;;;;2114502;28;19924;-45
2021/10/08 01:17:41;;;;;;;;;;;;;;;;;;2114869;28;19924;-45
2021/10/08 01:18:42;;;;;;;;;;;;;;;;;;2114302;28;20378;-45
2021/10/08 01:19:43;;;;;;;;;;;;;;;;;;2114828;28;19927;-45
2021/10/08 01:20:43;;;;;;;;;;;;;;;;;;2114223;28;20445;-45
2021/10/08 01:21:44;;;;;;;;;;;;;;;;;;2114693;28;19927;-45
2021/10/08 01:22:45;;;;;;;;;;;;;;;;;;2114418;28;20061;-45
2021/10/08 01:23:46;;;;;;;;;;;;;;;;;;2114754;28;20015;-45
2021/10/08 01:24:47;;;;;;;;;;;;;;;;;;2114490;28;19967;-45
2021/10/08 01:25:48;;;;;;;;;;;;;;;;;;2114482;28;19930;-45
2021/10/08 01:26:48;;;;;;;;;;;;;;;;;;2114316;28;19954;-45
2021/10/08 01:27:49;;;;;;;;;;;;;;;;;;2114845;28;19935;-45
2021/10/08 01:28:50;;;;;;;;;;;;;;;;;;2114512;28;19923;-45
2021/10/08 01:29:51;;;;;;;;;;;;;;;;;;2114621;28;20540;-45
2021/10/08 01:30:52;;;;;;;;;;;;;;;;;;2114328;28;19955;-45
2021/10/08 01:31:53;;;;;;;;;;;;;;;;;;2114491;28;19953;-45
2021/10/08 01:32:53;;;;;;;;;;;;;;;;;;2114488;28;20089;-45
2021/10/08 01:33:54;;;;;;;;;;;;;;;;;;2114620;28;19938;-45
2021/10/08 01:34:55;;;;;;;;;;;;;;;;;;2114188;28;19973;-45
2021/10/08 01:35:56;;;;;;;;;;;;;;;;;;2113484;28;19924;-45
2021/10/08 01:36:56;;;;;;;;;;;;;;;;;;2114294;28;19931;-45
2021/10/08 01:37:57;;;;;;;;;;;;;;;;;;2114804;28;19923;-45
2021/10/08 01:38:59;;;;;;;;;;;;;;;;;;2114326;28;19924;-45
2021/10/08 01:40:02;;;;;;;;;;;;;;;;;;2114609;28;19928;-45
2021/10/08 01:41:03;;;;;;;;;;;;;;;;;;2114289;28;20041;-45
2021/10/08 01:42:04;;;;;;;;;;;;;;;;;;2114476;28;19928;-45
2021/10/08 01:43:04;;;;;;;;;;;;;;;;;;2114522;28;19976;-45
2021/10/08 01:44:05;;;;;;;;;;;;;;;;;;2114618;28;19923;-45
2021/10/08 01:45:06;;;;;;;;;;;;;;;;;;2114363;28;19935;-45
2021/10/08 01:46:07;;;;;;;;;;;;;;;;;;2114195;28;20426;-45
2021/10/08 01:47:08;;;;;;;;;;;;;;;;;;2114337;28;19930;-45
2021/10/08 01:48:09;;;;;;;;;;;;;;;;;;2114460;28;19952;-45
2021/10/08 01:49:10;;;;;;;;;;;;;;;;;;2114332;28;19932;-45
2021/10/08 01:50:10;;;;;;;;;;;;;;;;;;2114189;28;19977;-45
2021/10/08 01:51:11;;;;;;;;;;;;;;;;;;2114446;28;19924;-45
2021/10/08 01:52:12;;;;;;;;;;;;;;;;;;2114239;28;20392;-45
2021/10/08 01:53:13;;;;;;;;;;;;;;;;;;2114320;28;20396;-45
2021/10/08 01:54:13;;;;;;;;;;;;;;;;;;2114156;28;19928;-45
2021/10/08 01:55:14;;;;;;;;;;;;;;;;;;2114391;28;19924;-45
2021/10/08 01:56:15;;;;;;;;;;;;;;;;;;2114155;28;19938;-45
2021/10/08 01:57:16;;;;;;;;;;;;;;;;;;2114383;28;19930;-45
2021/10/08 01:58:17;;;;;;;;;;;;;;;;;;2114220;28;19924;-45
2021/10/08 01:59:18;;;;;;;;;;;;;;;;;;2114254;28;19968;-45
2021/10/08 02:00:19;;;;;;;;;;;;;;;;;;2114341;28;20006;-45
2021/10/08 02:01:20;;;;;;;;;;;;;;;;;;2114172;28;20015;-45
2021/10/08 02:02:20;;;;;;;;;;;;;;;;;;2114226;28;20377;-45
2021/10/08 02:03:21;;;;;;;;;;;;;;;;;;2114195;28;19923;-45
2021/10/08 02:04:22;;;;;;;;;;;;;;;;;;2114212;28;20365;-45
2021/10/08 02:05:23;;;;;;;;;;;;;;;;;;2114242;28;19946;-45
2021/10/08 02:06:24;;;;;;;;;;;;;;;;;;2114404;28;19924;-45
2021/10/08 02:07:25;;;;;;;;;;;;;;;;;;2114075;28;19931;-45
2021/10/08 02:08:26;;;;;;;;;;;;;;;;;;2114215;28;19959;-45
2021/10/08 02:09:27;;;;;;;;;;;;;;;;;;2114186;28;19933;-45
2021/10/08 02:10:27;;;;;;;;;;;;;;;;;;2114274;28;19928;-45
2021/10/08 02:11:28;;;;;;;;;;;;;;;;;;2114068;28;19931;-45
2021/10/08 02:12:29;;;;;;;;;;;;;;;;;;2114333;28;19927;-45
2021/10/08 02:13:30;;;;;;;;;;;;;;;;;;2114023;28;20002;-45
2021/10/08 02:14:31;;;;;;;;;;;;;;;;;;2114302;28;19945;-45
2021/10/08 02:15:31;;;;;;;;;;;;;;;;;;2114053;28;19973;-45
2021/10/08 02:16:32;;;;;;;;;;;;;;;;;;2114468;28;20262;-45
2021/10/08 02:17:33;;;;;;;;;;;;;;;;;;2114074;28;19924;-45
2021/10/08 02:18:34;;;;;;;;;;;;;;;;;;2114252;28;19924;-45
2021/10/08 02:19:35;;;;;;;;;;;;;;;;;;2114094;28;20365;-45
2021/10/08 02:20:35;;;;;;;;;;;;;;;;;;2114366;28;19976;-45
2021/10/08 02:21:36;;;;;;;;;;;;;;;;;;2113877;28;19924;-45
2021/10/08 02:22:37;;;;;;;;;;;;;;;;;;2114247;28;19923;-45
2021/10/08 02:23:38;;;;;;;;;;;;;;;;;;2114022;28;19923;-45
2021/10/08 02:24:39;;;;;;;;;;;;;;;;;;2114416;28;19923;-45
2021/10/08 02:25:40;;;;;;;;;;;;;;;;;;2114026;28;19928;-45
2021/10/08 02:26:42;;;;;;;;;;;;;;;;;;2114161;28;19924;-45
2021/10/08 02:27:43;;;;;;;;;;;;;;;;;;2114160;28;20018;-45
2021/10/08 02:28:43;;;;;;;;;;;;;;;;;;2114292;28;19927;-45
2021/10/08 02:29:44;;;;;;;;;;;;;;;;;;2114085;28;20334;-45
2021/10/08 02:30:45;;;;;;;;;;;;;;;;;;2114119;28;19924;-45
2021/10/08 02:31:46;;;;;;;;;;;;;;;;;;2113948;28;19967;-45
2021/10/08 02:32:47;;;;;;;;;;;;;;;;;;2114094;28;19923;-45
2021/10/08 02:33:47;;;;;;;;;;;;;;;;;;2114060;28;19924;-45
2021/10/08 02:34:48;;;;;;;;;;;;;;;;;;2114260;28;19973;-45
2021/10/08 02:35:50;;;;;;;;;;;;;;;;;;2114090;28;20359;-45
2021/10/08 02:36:50;;;;;;;;;;;;;;;;;;2114174;28;19951;-45
2021/10/08 02:37:51;;;;;;;;;;;;;;;;;;2114187;28;19924;-45
2021/10/08 02:38:52;;;;;;;;;;;;;;;;;;2113910;28;19924;-45
2021/10/08 02:39:53;;;;;;;;;;;;;;;;;;2114186;28;19924;-45
2021/10/08 02:40:54;;;;;;;;;;;;;;;;;;2113955;28;20284;-45
2021/10/08 02:41:54;;;;;;;;;;;;;;;;;;2114104;28;20389;-45
2021/10/08 02:42:55;;;;;;;;;;;;;;;;;;2113968;28;19924;-45
2021/10/08 02:43:56;;;;;;;;;;;;;;;;;;2114381;28;20395;-45
2021/10/08 02:44:57;;;;;;;;;;;;;;;;;;2114079;28;19924;-45
2021/10/08 02:45:58;;;;;;;;;;;;;;;;;;2114089;28;19996;-45
2021/10/08 02:46:58;;;;;;;;;;;;;;;;;;2114234;28;19931;-45
2021/10/08 02:47:59;;;;;;;;;;;;;;;;;;2115571;28;19932;-45
2021/10/08 02:49:00;;;;;;;;;;;;;;;;;;2115486;28;20169;-45
2021/10/08 02:50:01;;;;;;;;;;;;;;;;;;2115571;28;19923;-45
2021/10/08 02:51:02;;;;;;;;;;;;;;;;;;2115336;28;20135;-45
2021/10/08 02:52:04;;;;;;;;;;;;;;;;;;2115713;28;19962;-45
2021/10/08 02:53:04;;;;;;;;;;;;;;;;;;2115384;28;20007;-45
2021/10/08 02:54:05;;;;;;;;;;;;;;;;;;2115555;28;19931;-45
2021/10/08 02:55:06;;;;;;;;;;;;;;;;;;2115394;28;19928;-45
2021/10/08 02:56:07;;;;;;;;;;;;;;;;;;2115761;28;19932;-45
2021/10/08 02:57:08;;;;;;;;;;;;;;;;;;2115461;28;20329;-45
2021/10/08 02:58:09;;;;;;;;;;;;;;;;;;2115662;28;20330;-45
2021/10/08 02:59:09;;;;;;;;;;;;;;;;;;2115442;28;19932;-45
2021/10/08 03:00:10;;;;;;;;;;;;;;;;;;2115580;28;19945;-45
2021/10/08 03:01:11;;;;;;;;;;;;;;;;;;2115361;28;19923;-45
2021/10/08 03:02:12;;;;;;;;;;;;;;;;;;2115500;28;19924;-45
2021/10/08 03:03:12;;;;;;;;;;;;;;;;;;2115351;28;20369;-45
2021/10/08 03:04:13;;;;;;;;;;;;;;;;;;2115391;28;19985;-45
2021/10/08 03:05:14;;;;;;;;;;;;;;;;;;2115430;28;19930;-45
2021/10/08 03:06:15;;;;;;;;;;;;;;;;;;2115350;28;19923;-45
2021/10/08 03:07:16;;;;;;;;;;;;;;;;;;2115523;28;20320;-45
2021/10/08 03:08:17;;;;;;;;;;;;;;;;;;2115411;28;19972;-45
2021/10/08 03:09:18;;;;;;;;;;;;;;;;;;2115536;28;19977;-45
2021/10/08 03:10:19;;;;;;;;;;;;;;;;;;2115553;28;20322;-45
2021/10/08 03:11:20;;;;;;;;;;;;;;;;;;2115421;28;20084;-45
2021/10/08 03:12:21;;;;;;;;;;;;;;;;;;2115452;28;19924;-45
2021/10/08 03:13:22;;;;;;;;;;;;;;;;;;2115348;28;19930;-45
2021/10/08 03:14:22;;;;;;;;;;;;;;;;;;2115376;28;20381;-45
2021/10/08 03:15:23;;;;;;;;;;;;;;;;;;2115354;28;19971;-45
2021/10/08 03:16:24;;;;;;;;;;;;;;;;;;2115284;28;19923;-45
2021/10/08 03:17:25;;;;;;;;;;;;;;;;;;2115281;28;19930;-45
2021/10/08 03:18:26;;;;;;;;;;;;;;;;;;2115278;28;19930;-45
2021/10/08 03:19:27;;;;;;;;;;;;;;;;;;2115401;28;20008;-45
2021/10/08 03:20:27;;;;;;;;;;;;;;;;;;2115320;28;19923;-45
2021/10/08 03:21:28;;;;;;;;;;;;;;;;;;2115394;28;20338;-45
2021/10/08 03:22:29;;;;;;;;;;;;;;;;;;2115173;28;19931;-45
2021/10/08 03:23:30;;;;;;;;;;;;;;;;;;2115441;28;20052;-45
2021/10/08 03:24:31;;;;;;;;;;;;;;;;;;2115262;28;20288;-45
2021/10/08 03:25:31;;;;;;;;;;;;;;;;;;2115209;28;19924;-45
2021/10/08 03:26:32;;;;;;;;;;;;;;;;;;2115084;28;19932;-45
2021/10/08 03:27:33;;;;;;;;;;;;;;;;;;2115281;28;19924;-45
2021/10/08 03:28:35;;;;;;;;;;;;;;;;;;2115183;28;19934;-45
2021/10/08 03:29:36;;;;;;;;;;;;;;;;;;2115329;28;20015;-45
2021/10/08 03:30:36;;;;;;;;;;;;;;;;;;2115162;28;20368;-45
2021/10/08 03:31:37;;;;;;;;;;;;;;;;;;2115280;28;20081;-45
2021/10/08 03:32:38;;;;;;;;;;;;;;;;;;2115519;28;20018;-45
2021/10/08 03:33:39;;;;;;;;;;;;;;;;;;2115058;28;19931;-45
2021/10/08 03:34:40;;;;;;;;;;;;;;;;;;2115272;28;19976;-45
2021/10/08 03:35:42;;;;;;;;;;;;;;;;;;2114952;28;19973;-45
2021/10/08 03:36:45;;;;;;;;;;;;;;;;;;2115352;28;20011;-45
2021/10/08 03:37:52;;;;;;;;;;;;;;;;;;2114993;28;19970;-45
2021/10/08 03:38:53;;;;;;;;;;;;;;;;;;2115471;28;19923;-45
2021/10/08 03:39:53;;;;;;;;;;;;;;;;;;2115019;28;19955;-45
2021/10/08 03:41:05;;;;;;;;;;;;;;;;;;2115349;28;19924;-45
2021/10/08 03:42:06;;;;;;;;;;;;;;;;;;2115088;28;20049;-46
2021/10/08 03:43:07;;;;;;;;;;;;;;;;;;2115561;28;20004;-45
2021/10/08 03:44:07;;;;;;;;;;;;;;;;;;2115225;28;20441;-45
2021/10/08 03:45:11;;;;;;;;;;;;;;;;;;2115399;28;19946;-45
2021/10/08 03:46:12;;;;;;;;;;;;;;;;;;2115063;28;19924;-45
2021/10/08 03:47:15;;;;;;;;;;;;;;;;;;2115234;28;19924;-45
2021/10/08 03:48:23;;;;;;;;;;;;;;;;;;2115064;28;19998;-45
2021/10/08 03:49:23;;;;;;;;;;;;;;;;;;2115110;28;20019;-45
2021/10/08 03:50:24;;;;;;;;;;;;;;;;;;2114927;28;19928;-45
2021/10/08 03:51:25;;;;;;;;;;;;;;;;;;2115211;28;19927;-45
2021/10/08 03:52:26;;;;;;;;;;;;;;;;;;2115076;28;19927;-45
2021/10/08 03:53:27;;;;;;;;;;;;;;;;;;2115285;28;20278;-47
2021/10/08 03:54:28;;;;;;;;;;;;;;;;;;2115039;28;19923;-45
2021/10/08 03:55:28;;;;;;;;;;;;;;;;;;2115224;28;19924;-45
2021/10/08 03:56:29;;;;;;;;;;;;;;;;;;2115113;28;20331;-45
2021/10/08 03:57:30;;;;;;;;;;;;;;;;;;2115308;28;20300;-45
2021/10/08 03:58:33;;;;;;;;;;;;;;;;;;2114207;28;20007;-45
2021/10/08 03:59:34;;;;;;;;;;;;;;;;;;2114954;28;19924;-45
2021/10/08 04:00:35;;;;;;;;;;;;;;;;;;2114844;28;19924;-45
2021/10/08 04:01:35;;;;;;;;;;;;;;;;;;2115281;28;19928;-45
2021/10/08 04:02:36;;;;;;;;;;;;;;;;;;2115077;28;20169;-45
2021/10/08 04:03:37;;;;;;;;;;;;;;;;;;2115451;28;20322;-45
2021/10/08 04:04:39;;;;;;;;;;;;;;;;;;2114916;28;19930;-45
2021/10/08 04:05:40;;;;;;;;;;;;;;;;;;2115169;28;20036;-45
2021/10/08 04:06:41;;;;;;;;;;;;;;;;;;2114996;28;19992;-45
2021/10/08 04:07:42;;;;;;;;;;;;;;;;;;2115117;28;20292;-45
2021/10/08 04:08:42;;;;;;;;;;;;;;;;;;2114813;28;19924;-45
2021/10/08 04:09:43;;;;;;;;;;;;;;;;;;2114969;28;20026;-45
2021/10/08 04:10:44;;;;;;;;;;;;;;;;;;2114737;28;19924;-45
2021/10/08 04:11:45;;;;;;;;;;;;;;;;;;2115124;28;19924;-45
2021/10/08 04:12:46;;;;;;;;;;;;;;;;;;2114915;28;19924;-45
2021/10/08 04:13:47;;;;;;;;;;;;;;;;;;2115048;28;20023;-45
2021/10/08 04:14:47;;;;;;;;;;;;;;;;;;2115077;28;19950;-45
2021/10/08 04:15:48;;;;;;;;;;;;;;;;;;2115079;28;19924;-45
2021/10/08 04:16:50;;;;;;;;;;;;;;;;;;2115105;28;20326;-45
2021/10/08 04:17:50;;;;;;;;;;;;;;;;;;2114979;28;20019;-45
2021/10/08 04:18:51;;;;;;;;;;;;;;;;;;2115115;28;19923;-45
2021/10/08 04:19:52;;;;;;;;;;;;;;;;;;2114983;28;20021;-45
2021/10/08 04:20:53;;;;;;;;;;;;;;;;;;2114933;28;20350;-45
2021/10/08 04:21:55;;;;;;;;;;;;;;;;;;2114919;28;19924;-45
2021/10/08 04:22:56;;;;;;;;;;;;;;;;;;2115083;28;20007;-45
2021/10/08 04:23:57;;;;;;;;;;;;;;;;;;2114695;28;19947;-45
2021/10/08 04:24:57;;;;;;;;;;;;;;;;;;2115024;28;19939;-45
2021/10/08 04:25:58;;;;;;;;;;;;;;;;;;2114990;28;19924;-45
2021/10/08 04:26:59;;;;;;;;;;;;;;;;;;2114987;28;20084;-45
2021/10/08 04:28:00;;;;;;;;;;;;;;;;;;2114785;28;19928;-45
2021/10/08 04:29:01;;;;;;;;;;;;;;;;;;2114862;28;20384;-45
2021/10/08 04:30:02;;;;;;;;;;;;;;;;;;2114679;28;19930;-45
2021/10/08 04:31:02;;;;;;;;;;;;;;;;;;2114949;28;19930;-45
2021/10/08 04:32:03;;;;;;;;;;;;;;;;;;2114719;28;20169;-45
2021/10/08 04:33:04;;;;;;;;;;;;;;;;;;2114944;28;19982;-45
2021/10/08 04:34:05;;;;;;;;;;;;;;;;;;2114630;28;20373;-45
2021/10/08 04:35:06;;;;;;;;;;;;;;;;;;2115006;28;19970;-45
2021/10/08 04:36:07;;;;;;;;;;;;;;;;;;2114671;28;19928;-45
2021/10/08 04:37:07;;;;;;;;;;;;;;;;;;2115067;28;20334;-45
2021/10/08 04:38:08;;;;;;;;;;;;;;;;;;2114668;28;20308;-45
2021/10/08 04:39:11;;;;;;;;;;;;;;;;;;2114926;28;20381;-45
2021/10/08 04:40:12;;;;;;;;;;;;;;;;;;2114811;28;19923;-45
2021/10/08 04:41:13;;;;;;;;;;;;;;;;;;2114828;28;20010;-45
2021/10/08 04:42:13;;;;;;;;;;;;;;;;;;2114779;28;19984;-45
2021/10/08 04:43:14;;;;;;;;;;;;;;;;;;2114827;28;20350;-45
2021/10/08 04:44:15;;;;;;;;;;;;;;;;;;2114955;28;19930;-45
2021/10/08 04:45:16;;;;;;;;;;;;;;;;;;2114908;28;19924;-45
2021/10/08 04:46:17;;;;;;;;;;;;;;;;;;2114727;28;19927;-45
2021/10/08 04:47:17;;;;;;;;;;;;;;;;;;2114709;28;19934;-45
2021/10/08 04:48:18;;;;;;;;;;;;;;;;;;2114797;28;20296;-45
2021/10/08 04:49:19;;;;;;;;;;;;;;;;;;2114691;28;19968;-45
2021/10/08 04:50:20;;;;;;;;;;;;;;;;;;2114581;28;19931;-45
2021/10/08 04:51:21;;;;;;;;;;;;;;;;;;2114811;28;19931;-45
2021/10/08 04:52:22;;;;;;;;;;;;;;;;;;2114639;28;20329;-45
2021/10/08 04:53:22;;;;;;;;;;;;;;;;;;2114764;28;20368;-45
2021/10/08 04:54:23;;;;;;;;;;;;;;;;;;2114741;28;19930;-45
2021/10/08 04:55:24;;;;;;;;;;;;;;;;;;2114704;28;20326;-45
2021/10/08 04:56:25;;;;;;;;;;;;;;;;;;2114604;28;20235;-45
2021/10/08 04:57:26;;;;;;;;;;;;;;;;;;2114680;28;19924;-45
2021/10/08 04:58:27;;;;;;;;;;;;;;;;;;2114778;28;19924;-45
2021/10/08 04:59:27;;;;;;;;;;;;;;;;;;2114672;28;20324;-45
2021/10/08 05:00:28;;;;;;;;;;;;;;;;;;2114631;28;20471;-45
2021/10/08 05:01:29;;;;;;;;;;;;;;;;;;2114567;28;19976;-45
2021/10/08 05:02:30;;;;;;;;;;;;;;;;;;2114775;28;19928;-45
2021/10/08 05:03:31;;;;;;;;;;;;;;;;;;2114600;28;19972;-45
2021/10/08 05:04:31;;;;;;;;;;;;;;;;;;2114805;28;19923;-45
2021/10/08 05:05:32;;;;;;;;;;;;;;;;;;2114527;28;19930;-45
2021/10/08 05:06:33;;;;;;;;;;;;;;;;;;2114595;28;19923;-45
2021/10/08 05:07:34;;;;;;;;;;;;;;;;;;2114563;28;19924;-45
2021/10/08 05:08:35;;;;;;;;;;;;;;;;;;2114740;28;20156;-45
2021/10/08 05:09:35;;;;;;;;;;;;;;;;;;2114768;28;20334;-45
2021/10/08 05:10:36;;;;;;;;;;;;;;;;;;2114275;28;20412;-45
2021/10/08 05:11:37;;;;;;;;;;;;;;;;;;2114954;28;19924;-45
2021/10/08 05:12:38;;;;;;;;;;;;;;;;;;2114572;28;19965;-45
2021/10/08 05:13:38;;;;;;;;;;;;;;;;;;2114782;28;19923;-45
2021/10/08 05:14:39;;;;;;;;;;;;;;;;;;2114413;28;20370;-45
2021/10/08 05:15:40;;;;;;;;;;;;;;;;;;2114849;28;19923;-45
2021/10/08 05:16:41;;;;;;;;;;;;;;;;;;2114365;28;20391;-45
2021/10/08 05:17:42;;;;;;;;;;;;;;;;;;2114772;28;20399;-45
2021/10/08 05:18:43;;;;;;;;;;;;;;;;;;2114447;28;19924;-45
2021/10/08 05:19:43;;;;;;;;;;;;;;;;;;2114639;28;20381;-45
2021/10/08 05:20:44;;;;;;;;;;;;;;;;;;2114329;28;20388;-45
2021/10/08 05:21:48;;;;;;;;;;;;;;;;;;2114629;28;19935;-45
2021/10/08 05:22:49;;;;;;;;;;;;;;;;;;2114448;28;20367;-45
2021/10/08 05:23:50;;;;;;;;;;;;;;;;;;2114680;28;19928;-45
2021/10/08 05:24:50;;;;;;;;;;;;;;;;;;2114298;28;19928;-45
2021/10/08 05:25:51;;;;;;;;;;;;;;;;;;2114603;28;19973;-45
2021/10/08 05:26:52;;;;;;;;;;;;;;;;;;2114588;28;20296;-45
2021/10/08 05:27:53;;;;;;;;;;;;;;;;;;2114684;28;20288;-45
2021/10/08 05:28:54;;;;;;;;;;;;;;;;;;2114266;28;19924;-45
2021/10/08 05:29:54;;;;;;;;;;;;;;;;;;2114577;28;19946;-45
2021/10/08 05:30:55;;;;;;;;;;;;;;;;;;2114521;28;19924;-45
2021/10/08 05:31:56;;;;;;;;;;;;;;;;;;2114608;28;20018;-45
2021/10/08 05:32:57;;;;;;;;;;;;;;;;;;2114217;28;19924;-45
2021/10/08 05:33:58;;;;;;;;;;;;;;;;;;2114643;28;19931;-45
2021/10/08 05:34:58;;;;;;;;;;;;;;;;;;2114181;28;19923;-45
2021/10/08 05:35:59;;;;;;;;;;;;;;;;;;2114666;28;19924;-45
2021/10/08 05:37:00;;;;;;;;;;;;;;;;;;2114418;28;20321;-45
2021/10/08 05:38:01;;;;;;;;;;;;;;;;;;2114566;28;20331;-45
2021/10/08 05:39:02;;;;;;;;;;;;;;;;;;2114272;28;19951;-45
2021/10/08 05:40:03;;;;;;;;;;;;;;;;;;2114543;28;20372;-45
2021/10/08 05:41:04;;;;;;;;;;;;;;;;;;2114610;28;19924;-45
2021/10/08 05:42:05;;;;;;;;;;;;;;;;;;2114238;28;19923;-45
2021/10/08 05:43:05;;;;;;;;;;;;;;;;;;2114442;28;19947;-45
2021/10/08 05:44:06;;;;;;;;;;;;;;;;;;2114401;28;20074;-45
2021/10/08 05:45:07;;;;;;;;;;;;;;;;;;2114512;28;19972;-45
2021/10/08 05:46:08;;;;;;;;;;;;;;;;;;2114482;28;19923;-45
2021/10/08 05:47:09;;;;;;;;;;;;;;;;;;2114337;28;20301;-45
2021/10/08 05:48:10;;;;;;;;;;;;;;;;;;2114234;28;19939;-45
2021/10/08 05:49:11;;;;;;;;;;;;;;;;;;2114301;28;19928;-45
2021/10/08 05:50:12;;;;;;;;;;;;;;;;;;2114317;28;19923;-45
2021/10/08 05:51:12;;;;;;;;;;;;;;;;;;2114448;28;20273;-45
2021/10/08 05:52:13;;;;;;;;;;;;;;;;;;2114343;28;20279;-45
2021/10/08 05:53:14;;;;;;;;;;;;;;;;;;2114271;28;20380;-45
2021/10/08 05:54:15;;;;;;;;;;;;;;;;;;2114413;28;20342;-45
2021/10/08 05:55:16;;;;;;;;;;;;;;;;;;2114354;28;20342;-45
2021/10/08 05:56:16;;;;;;;;;;;;;;;;;;2114220;28;19930;-45
2021/10/08 05:57:17;;;;;;;;;;;;;;;;;;2114379;28;19994;-45
2021/10/08 05:58:18;;;;;;;;;;;;;;;;;;2114315;28;19937;-45
2021/10/08 05:59:19;;;;;;;;;;;;;;;;;;2114356;28;19923;-45
2021/10/08 06:00:19;;;;;;;;;;;;;;;;;;2114116;28;20408;-45
2021/10/08 06:01:20;;;;;;;;;;;;;;;;;;2114328;28;19935;-45
2021/10/08 06:02:21;;;;;;;;;;;;;;;;;;2114361;28;20130;-45
2021/10/08 06:03:22;;;;;;;;;;;;;;;;;;2114240;28;20429;-45
2021/10/08 06:04:23;;;;;;;;;;;;;;;;;;2114214;28;19923;-45
2021/10/08 06:05:24;;;;;;;;;;;;;;;;;;2114263;28;19924;-45
2021/10/08 06:06:25;;;;;;;;;;;;;;;;;;2114361;28;20303;-45
2021/10/08 06:07:25;;;;;;;;;;;;;;;;;;2114221;28;19989;-45
2021/10/08 06:08:26;;;;;;;;;;;;;;;;;;2114359;28;19930;-45
2021/10/08 06:09:27;;;;;;;;;;;;;;;;;;2114124;28;19924;-45
2021/10/08 06:10:28;;;;;;;;;;;;;;;;;;2114285;28;19930;-45
2021/10/08 06:11:29;;;;;;;;;;;;;;;;;;2114270;28;19945;-45
2021/10/08 06:12:30;;;;;;;;;;;;;;;;;;2114366;28;19927;-45
2021/10/08 06:13:32;;;;;;;;;;;;;;;;;;2113935;28;19927;-45
2021/10/08 06:14:33;;;;;;;;;;;;;;;;;;2114351;28;19924;-45
2021/10/08 06:15:34;;;;;;;;;;;;;;;;;;2114013;28;20430;-45
2021/10/08 06:16:34;;;;;;;;;;;;;;;;;;2114411;28;19923;-45
2021/10/08 06:17:35;;;;;;;;;;;;;;;;;;2114134;28;19977;-45
2021/10/08 06:18:36;;;;;;;;;;;;;;;;;;2114527;28;20257;-45
2021/10/08 06:19:37;;;;;;;;;;;;;;;;;;2114075;28;20385;-45
2021/10/08 06:20:38;;;;;;;;;;;;;;;;;;2114366;28;19924;-45
2021/10/08 06:21:38;;;;;;;;;;;;;;;;;;2113491;28;19931;-45
2021/10/08 06:22:40;;;;;;;;;;;;;;;;;;2113999;28;19924;-45
2021/10/08 06:23:41;;;;;;;;;;;;;;;;;;2113986;28;20497;-45
2021/10/08 06:24:41;;;;;;;;;;;;;;;;;;2114089;28;19927;-45
2021/10/08 06:25:42;;;;;;;;;;;;;;;;;;2113968;28;19931;-45
2021/10/08 06:26:43;;;;;;;;;;;;;;;;;;2114108;28;19930;-45
2021/10/08 06:27:46;;;;;;;;;;;;;;;;;;2114153;28;19946;-45
2021/10/08 06:28:47;;;;;;;;;;;;;;;;;;2114096;28;20007;-45
2021/10/08 06:29:48;;;;;;;;;;;;;;;;;;2114103;28;19924;-45
2021/10/08 06:30:48;;;;;;;;;;;;;;;;;;2114121;28;19924;-45
2021/10/08 06:31:49;;;;;;;;;;;;;;;;;;2114027;28;19923;-45
2021/10/08 06:32:50;;;;;;;;;;;;;;;;;;2114319;28;19931;-45
2021/10/08 06:33:51;;;;;;;;;;;;;;;;;;2113988;28;20270;-45
2021/10/08 06:34:52;;;;;;;;;;;;;;;;;;2114171;28;19930;-45
2021/10/08 06:35:53;;;;;;;;;;;;;;;;;;2114059;28;19931;-45
2021/10/08 06:36:54;;;;;;;;;;;;;;;;;;2114053;28;19924;-45
2021/10/08 06:37:55;;;;;;;;;;;;;;;;;;2114154;28;20437;-45
2021/10/08 06:38:55;;;;;;;;;;;;;;;;;;2114119;28;19924;-45
2021/10/08 06:39:56;;;;;;;;;;;;;;;;;;2114116;28;19931;-45
2021/10/08 06:40:57;;;;;;;;;;;;;;;;;;2114048;28;19970;-45
2021/10/08 06:41:58;;;;;;;;;;;;;;;;;;2114255;28;19924;-45
2021/10/08 06:42:59;;;;;;;;;;;;;;;;;;2113980;28;20292;-45
2021/10/08 06:44:00;;;;;;;;;;;;;;;;;;2114379;28;19931;-45
2021/10/08 06:45:00;;;;;;;;;;;;;;;;;;2114119;28;19931;-45
2021/10/08 06:46:01;;;;;;;;;;;;;;;;;;2114212;28;19924;-45
2021/10/08 06:47:02;;;;;;;;;;;;;;;;;;2113914;28;19924;-45
2021/10/08 06:48:03;;;;;;;;;;;;;;;;;;2114213;28;19924;-45
2021/10/08 06:49:04;;;;;;;;;;;;;;;;;;2113895;28;19927;-45
2021/10/08 06:50:05;;;;;;;;;;;;;;;;;;2114227;28;20337;-45
2021/10/08 06:51:06;;;;;;;;;;;;;;;;;;2113813;28;20348;-45
2021/10/08 06:52:07;;;;;;;;;;;;;;;;;;2114038;28;19935;-45
2021/10/08 06:53:09;;;;;;;;;;;;;;;;;;2113932;28;19924;-45
2021/10/08 06:54:09;;;;;;;;;;;;;;;;;;2114113;28;19924;-45
2021/10/08 06:55:10;;;;;;;;;;;;;;;;;;2113886;28;19932;-45
2021/10/08 06:56:11;;;;;;;;;;;;;;;;;;2113988;28;19924;-45